sensor_id;sensor_type;location;lat;lon;timestamp;temperature;humidity
12289;DHT22;6207;49.308;7.336;2023-04-03T00:02:23;3.60;99.90
12289;DHT22;6207;49.308;7.336;2023-04-03T00:04:50;3.60;99.90
12289;DHT22;6207;49.308;7.336;2023-04-03T00:07:16;3.60;99.90
12289;DHT22;6207;49.308;7.336;2023-04-03T00:09:43;3.60;99.90
12289;DHT22;6207;49.308;7.336;2023-04-03T00:12:09;3.50;99.90
12289;DHT22;6207;49.308;7.336;2023-04-03T00:14:37;3.50;99.90
12289;DHT22;6207;49.308;7.336;2023-04-03T00:17:03;3.50;99.90
12289;DHT22;6207;49.308;7.336;2023-04-03T00:19:30;3.60;99.90
12289;DHT22;6207;49.308;7.336;2023-04-03T00:21:57;3.50;99.90
12289;DHT22;6207;49.308;7.336;2023-04-03T00:24:23;3.50;99.90
12289;DHT22;6207;49.308;7.336;2023-04-03T00:26:50;3.50;99.90
12289;DHT22;6207;49.308;7.336;2023-04-03T00:29:17;3.50;99.90
12289;DHT22;6207;49.308;7.336;2023-04-03T00:31:43;3.50;99.90
12289;DHT22;6207;49.308;7.336;2023-04-03T00:34:10;3.50;99.90
12289;DHT22;6207;49.308;7.336;2023-04-03T00:36:37;3.50;99.90
12289;DHT22;6207;49.308;7.336;2023-04-03T00:39:03;3.60;99.90
12289;DHT22;6207;49.308;7.336;2023-04-03T00:41:31;3.50;99.90
12289;DHT22;6207;49.308;7.336;2023-04-03T00:43:58;3.50;99.90
12289;DHT22;6207;49.308;7.336;2023-04-03T00:46:24;3.40;99.90
12289;DHT22;6207;49.308;7.336;2023-04-03T00:48:51;3.30;99.90
12289;DHT22;6207;49.308;7.336;2023-04-03T00:51:23;3.30;99.90
12289;DHT22;6207;49.308;7.336;2023-04-03T00:53:52;3.10;99.90
12289;DHT22;6207;49.308;7.336;2023-04-03T00:56:21;3.30;99.90
12289;DHT22;6207;49.308;7.336;2023-04-03T00:58:51;3.00;99.90
12289;DHT22;6207;49.308;7.336;2023-04-03T01:01:20;3.00;99.90
12289;DHT22;6207;49.308;7.336;2023-04-03T01:03:48;2.80;99.90
12289;DHT22;6207;49.308;7.336;2023-04-03T01:06:15;2.70;99.90
12289;DHT22;6207;49.308;7.336;2023-04-03T01:08:42;2.50;99.90
12289;DHT22;6207;49.308;7.336;2023-04-03T01:11:10;2.50;99.90
12289;DHT22;6207;49.308;7.336;2023-04-03T01:13:36;2.50;99.90
12289;DHT22;6207;49.308;7.336;2023-04-03T01:16:04;2.40;99.90
12289;DHT22;6207;49.308;7.336;2023-04-03T01:18:31;2.30;99.90
12289;DHT22;6207;49.308;7.336;2023-04-03T01:23:32;2.30;99.90
12289;DHT22;6207;49.308;7.336;2023-04-03T01:26:03;2.20;99.90
12289;DHT22;6207;49.308;7.336;2023-04-03T01:28:32;2.10;99.90
12289;DHT22;6207;49.308;7.336;2023-04-03T01:33:25;2.10;99.90
12289;DHT22;6207;49.308;7.336;2023-04-03T01:35:52;2.00;99.90
12289;DHT22;6207;49.308;7.336;2023-04-03T01:38:19;2.00;99.90
12289;DHT22;6207;49.308;7.336;2023-04-03T01:40:45;2.00;99.90
12289;DHT22;6207;49.308;7.336;2023-04-03T01:43:12;1.90;99.90
12289;DHT22;6207;49.308;7.336;2023-04-03T01:45:39;1.80;99.90
12289;DHT22;6207;49.308;7.336;2023-04-03T01:48:05;1.70;99.90
12289;DHT22;6207;49.308;7.336;2023-04-03T01:50:32;1.70;99.90
12289;DHT22;6207;49.308;7.336;2023-04-03T01:52:59;1.70;99.90
12289;DHT22;6207;49.308;7.336;2023-04-03T01:55:25;1.70;99.90
12289;DHT22;6207;49.308;7.336;2023-04-03T01:57:52;1.70;99.90
12289;DHT22;6207;49.308;7.336;2023-04-03T02:00:18;1.70;99.90
12289;DHT22;6207;49.308;7.336;2023-04-03T02:02:45;1.60;99.90
12289;DHT22;6207;49.308;7.336;2023-04-03T02:05:12;1.50;99.90
12289;DHT22;6207;49.308;7.336;2023-04-03T02:07:38;1.50;99.90
12289;DHT22;6207;49.308;7.336;2023-04-03T02:10:05;1.50;99.90
12289;DHT22;6207;49.308;7.336;2023-04-03T02:12:32;1.60;99.90
12289;DHT22;6207;49.308;7.336;2023-04-03T02:14:59;1.60;99.90
12289;DHT22;6207;49.308;7.336;2023-04-03T02:17:25;1.50;99.90
12289;DHT22;6207;49.308;7.336;2023-04-03T02:19:52;1.50;99.90
12289;DHT22;6207;49.308;7.336;2023-04-03T02:22:19;1.50;99.90
12289;DHT22;6207;49.308;7.336;2023-04-03T02:24:46;1.70;99.90
12289;DHT22;6207;49.308;7.336;2023-04-03T02:27:13;1.60;99.90
12289;DHT22;6207;49.308;7.336;2023-04-03T02:29:40;1.30;99.90
12289;DHT22;6207;49.308;7.336;2023-04-03T02:32:06;1.30;99.90
12289;DHT22;6207;49.308;7.336;2023-04-03T02:34:33;1.30;99.90
12289;DHT22;6207;49.308;7.336;2023-04-03T02:37:00;1.50;99.90
12289;DHT22;6207;49.308;7.336;2023-04-03T02:39:26;1.80;99.90
12289;DHT22;6207;49.308;7.336;2023-04-03T02:41:53;1.40;99.90
12289;DHT22;6207;49.308;7.336;2023-04-03T02:44:19;1.30;99.90
12289;DHT22;6207;49.308;7.336;2023-04-03T02:46:46;1.40;99.90
12289;DHT22;6207;49.308;7.336;2023-04-03T02:49:13;1.30;99.90
12289;DHT22;6207;49.308;7.336;2023-04-03T02:51:39;1.40;99.90
12289;DHT22;6207;49.308;7.336;2023-04-03T02:54:06;1.20;99.90
12289;DHT22;6207;49.308;7.336;2023-04-03T02:56:33;1.10;99.90
12289;DHT22;6207;49.308;7.336;2023-04-03T02:58:59;1.10;99.90
12289;DHT22;6207;49.308;7.336;2023-04-03T03:01:26;1.20;99.90
12289;DHT22;6207;49.308;7.336;2023-04-03T03:03:58;1.30;99.90
12289;DHT22;6207;49.308;7.336;2023-04-03T03:06:24;1.30;99.90
12289;DHT22;6207;49.308;7.336;2023-04-03T03:08:51;1.40;99.90
12289;DHT22;6207;49.308;7.336;2023-04-03T03:11:18;1.40;99.90
12289;DHT22;6207;49.308;7.336;2023-04-03T03:13:44;1.40;99.90
12289;DHT22;6207;49.308;7.336;2023-04-03T03:16:11;1.40;99.90
12289;DHT22;6207;49.308;7.336;2023-04-03T03:18:38;1.30;99.90
12289;DHT22;6207;49.308;7.336;2023-04-03T03:21:04;1.30;99.90
12289;DHT22;6207;49.308;7.336;2023-04-03T03:23:32;1.40;99.90
12289;DHT22;6207;49.308;7.336;2023-04-03T03:26:00;1.50;99.90
12289;DHT22;6207;49.308;7.336;2023-04-03T03:28:27;1.40;99.90
12289;DHT22;6207;49.308;7.336;2023-04-03T03:30:53;1.30;99.90
12289;DHT22;6207;49.308;7.336;2023-04-03T03:33:20;1.40;99.90
12289;DHT22;6207;49.308;7.336;2023-04-03T03:35:46;1.20;99.90
12289;DHT22;6207;49.308;7.336;2023-04-03T03:38:13;1.10;99.90
12289;DHT22;6207;49.308;7.336;2023-04-03T03:40:40;1.10;99.90
12289;DHT22;6207;49.308;7.336;2023-04-03T03:43:06;1.20;99.90
12289;DHT22;6207;49.308;7.336;2023-04-03T03:45:33;1.20;99.90
12289;DHT22;6207;49.308;7.336;2023-04-03T03:48:01;0.90;99.90
12289;DHT22;6207;49.308;7.336;2023-04-03T03:50:27;0.90;99.90
12289;DHT22;6207;49.308;7.336;2023-04-03T03:52:54;0.80;99.90
12289;DHT22;6207;49.308;7.336;2023-04-03T03:55:21;0.70;99.90
12289;DHT22;6207;49.308;7.336;2023-04-03T03:57:48;0.70;99.90
12289;DHT22;6207;49.308;7.336;2023-04-03T04:00:14;0.70;99.90
12289;DHT22;6207;49.308;7.336;2023-04-03T04:02:42;0.80;99.90
12289;DHT22;6207;49.308;7.336;2023-04-03T04:05:09;0.80;99.90
12289;DHT22;6207;49.308;7.336;2023-04-03T04:07:36;0.80;99.90
12289;DHT22;6207;49.308;7.336;2023-04-03T04:10:02;0.80;99.90
12289;DHT22;6207;49.308;7.336;2023-04-03T04:12:29;0.70;99.90
12289;DHT22;6207;49.308;7.336;2023-04-03T04:14:56;0.90;99.90
12289;DHT22;6207;49.308;7.336;2023-04-03T04:17:23;0.80;99.90
12289;DHT22;6207;49.308;7.336;2023-04-03T04:19:49;0.70;99.90
12289;DHT22;6207;49.308;7.336;2023-04-03T04:22:16;0.70;99.90
12289;DHT22;6207;49.308;7.336;2023-04-03T04:24:42;0.80;99.90
12289;DHT22;6207;49.308;7.336;2023-04-03T04:27:09;1.00;99.90
12289;DHT22;6207;49.308;7.336;2023-04-03T04:29:36;1.10;99.90
12289;DHT22;6207;49.308;7.336;2023-04-03T04:32:03;1.00;99.90
12289;DHT22;6207;49.308;7.336;2023-04-03T04:34:30;0.90;99.90
12289;DHT22;6207;49.308;7.336;2023-04-03T04:36:57;0.80;99.90
12289;DHT22;6207;49.308;7.336;2023-04-03T04:39:23;0.90;99.90
12289;DHT22;6207;49.308;7.336;2023-04-03T04:41:50;0.90;99.90
12289;DHT22;6207;49.308;7.336;2023-04-03T04:44:17;1.00;99.90
12289;DHT22;6207;49.308;7.336;2023-04-03T04:46:43;0.80;99.90
12289;DHT22;6207;49.308;7.336;2023-04-03T04:49:10;0.90;99.90
12289;DHT22;6207;49.308;7.336;2023-04-03T04:51:37;0.90;99.90
12289;DHT22;6207;49.308;7.336;2023-04-03T04:54:17;0.80;99.90
12289;DHT22;6207;49.308;7.336;2023-04-03T04:56:44;0.90;99.90
12289;DHT22;6207;49.308;7.336;2023-04-03T04:59:10;0.80;99.90
12289;DHT22;6207;49.308;7.336;2023-04-03T05:01:37;0.80;99.90
12289;DHT22;6207;49.308;7.336;2023-04-03T05:04:04;0.90;99.90
12289;DHT22;6207;49.308;7.336;2023-04-03T05:06:30;1.00;99.90
12289;DHT22;6207;49.308;7.336;2023-04-03T05:08:58;0.90;99.90
12289;DHT22;6207;49.308;7.336;2023-04-03T05:11:25;0.70;99.90
12289;DHT22;6207;49.308;7.336;2023-04-03T05:13:52;0.80;99.90
12289;DHT22;6207;49.308;7.336;2023-04-03T05:16:19;0.80;99.90
12289;DHT22;6207;49.308;7.336;2023-04-03T05:18:45;0.80;99.90
12289;DHT22;6207;49.308;7.336;2023-04-03T05:21:12;0.70;99.90
12289;DHT22;6207;49.308;7.336;2023-04-03T05:23:39;0.80;99.90
12289;DHT22;6207;49.308;7.336;2023-04-03T05:26:05;1.00;99.90
12289;DHT22;6207;49.308;7.336;2023-04-03T05:28:32;0.80;99.90
12289;DHT22;6207;49.308;7.336;2023-04-03T05:30:58;0.80;99.90
12289;DHT22;6207;49.308;7.336;2023-04-03T05:33:25;0.80;99.90
12289;DHT22;6207;49.308;7.336;2023-04-03T05:35:53;0.80;99.90
12289;DHT22;6207;49.308;7.336;2023-04-03T05:38:20;0.90;99.90
12289;DHT22;6207;49.308;7.336;2023-04-03T05:40:47;1.00;99.90
12289;DHT22;6207;49.308;7.336;2023-04-03T05:43:13;0.90;99.90
12289;DHT22;6207;49.308;7.336;2023-04-03T05:45:40;1.00;99.90
12289;DHT22;6207;49.308;7.336;2023-04-03T05:48:06;1.00;99.90
12289;DHT22;6207;49.308;7.336;2023-04-03T05:50:33;1.00;99.90
12289;DHT22;6207;49.308;7.336;2023-04-03T05:53:00;1.10;99.90
12289;DHT22;6207;49.308;7.336;2023-04-03T05:55:28;1.20;99.90
12289;DHT22;6207;49.308;7.336;2023-04-03T05:57:55;1.10;99.90
12289;DHT22;6207;49.308;7.336;2023-04-03T06:00:22;1.20;99.90
12289;DHT22;6207;49.308;7.336;2023-04-03T06:02:49;1.20;99.90
12289;DHT22;6207;49.308;7.336;2023-04-03T06:05:16;1.30;99.90
12289;DHT22;6207;49.308;7.336;2023-04-03T06:07:43;1.50;99.90
12289;DHT22;6207;49.308;7.336;2023-04-03T06:10:11;1.50;99.90
12289;DHT22;6207;49.308;7.336;2023-04-03T06:12:38;1.70;99.90
12289;DHT22;6207;49.308;7.336;2023-04-03T06:15:05;2.70;99.90
12289;DHT22;6207;49.308;7.336;2023-04-03T06:17:31;4.00;99.90
12289;DHT22;6207;49.308;7.336;2023-04-03T06:19:58;5.40;99.90
12289;DHT22;6207;49.308;7.336;2023-04-03T06:22:25;5.00;99.90
12289;DHT22;6207;49.308;7.336;2023-04-03T06:24:52;5.50;99.90
12289;DHT22;6207;49.308;7.336;2023-04-03T06:27:18;5.20;99.90
12289;DHT22;6207;49.308;7.336;2023-04-03T06:29:45;4.70;99.90
12289;DHT22;6207;49.308;7.336;2023-04-03T06:32:11;6.40;99.90
12289;DHT22;6207;49.308;7.336;2023-04-03T06:34:38;6.10;99.90
12289;DHT22;6207;49.308;7.336;2023-04-03T06:37:05;5.80;99.90
12289;DHT22;6207;49.308;7.336;2023-04-03T06:39:31;5.50;99.90
12289;DHT22;6207;49.308;7.336;2023-04-03T06:41:58;6.40;99.90
12289;DHT22;6207;49.308;7.336;2023-04-03T06:44:25;6.50;99.90
12289;DHT22;6207;49.308;7.336;2023-04-03T06:46:52;6.80;99.90
12289;DHT22;6207;49.308;7.336;2023-04-03T06:49:20;6.90;99.90
12289;DHT22;6207;49.308;7.336;2023-04-03T06:51:48;6.90;99.90
12289;DHT22;6207;49.308;7.336;2023-04-03T06:54:14;5.70;99.90
12289;DHT22;6207;49.308;7.336;2023-04-03T06:56:41;6.10;99.90
12289;DHT22;6207;49.308;7.336;2023-04-03T06:59:09;6.30;99.90
12289;DHT22;6207;49.308;7.336;2023-04-03T07:01:35;6.00;99.90
12289;DHT22;6207;49.308;7.336;2023-04-03T07:04:02;6.20;99.90
12289;DHT22;6207;49.308;7.336;2023-04-03T07:06:29;6.90;99.90
12289;DHT22;6207;49.308;7.336;2023-04-03T07:08:55;5.70;99.90
12289;DHT22;6207;49.308;7.336;2023-04-03T07:11:22;6.10;99.90
12289;DHT22;6207;49.308;7.336;2023-04-03T07:13:49;6.50;99.90
12289;DHT22;6207;49.308;7.336;2023-04-03T07:16:15;7.00;99.90
12289;DHT22;6207;49.308;7.336;2023-04-03T07:18:42;7.20;99.90
12289;DHT22;6207;49.308;7.336;2023-04-03T07:21:09;9.10;99.90
12289;DHT22;6207;49.308;7.336;2023-04-03T07:23:36;8.10;99.90
12289;DHT22;6207;49.308;7.336;2023-04-03T07:26:03;6.50;99.90
12289;DHT22;6207;49.308;7.336;2023-04-03T07:28:30;5.50;99.90
12289;DHT22;6207;49.308;7.336;2023-04-03T07:31:04;6.20;99.90
12289;DHT22;6207;49.308;7.336;2023-04-03T07:33:32;6.80;99.90
12289;DHT22;6207;49.308;7.336;2023-04-03T07:35:59;7.50;99.90
12289;DHT22;6207;49.308;7.336;2023-04-03T07:38:27;5.70;99.90
12289;DHT22;6207;49.308;7.336;2023-04-03T07:40:53;5.20;99.90
12289;DHT22;6207;49.308;7.336;2023-04-03T07:43:21;5.30;99.90
12289;DHT22;6207;49.308;7.336;2023-04-03T07:45:49;5.00;99.90
12289;DHT22;6207;49.308;7.336;2023-04-03T07:48:20;5.80;99.90
12289;DHT22;6207;49.308;7.336;2023-04-03T07:50:48;6.50;99.90
12289;DHT22;6207;49.308;7.336;2023-04-03T07:53:15;6.80;99.90
12289;DHT22;6207;49.308;7.336;2023-04-03T07:55:41;6.60;99.90
12289;DHT22;6207;49.308;7.336;2023-04-03T07:58:16;8.90;99.90
12289;DHT22;6207;49.308;7.336;2023-04-03T08:00:43;7.90;99.90
12289;DHT22;6207;49.308;7.336;2023-04-03T08:03:11;7.70;99.90
12289;DHT22;6207;49.308;7.336;2023-04-03T08:05:40;9.70;99.90
12289;DHT22;6207;49.308;7.336;2023-04-03T08:08:08;9.90;99.90
12289;DHT22;6207;49.308;7.336;2023-04-03T08:10:36;9.90;99.90
12289;DHT22;6207;49.308;7.336;2023-04-03T08:13:04;10.00;99.90
12289;DHT22;6207;49.308;7.336;2023-04-03T08:15:31;9.40;99.90
12289;DHT22;6207;49.308;7.336;2023-04-03T08:17:59;9.00;99.90
12289;DHT22;6207;49.308;7.336;2023-04-03T08:20:26;10.80;99.90
12289;DHT22;6207;49.308;7.336;2023-04-03T08:22:53;8.80;99.90
12289;DHT22;6207;49.308;7.336;2023-04-03T08:25:21;8.40;99.90
12289;DHT22;6207;49.308;7.336;2023-04-03T08:27:47;6.70;99.90
12289;DHT22;6207;49.308;7.336;2023-04-03T08:30:14;7.00;99.90
12289;DHT22;6207;49.308;7.336;2023-04-03T08:32:41;8.00;99.90
12289;DHT22;6207;49.308;7.336;2023-04-03T08:35:10;8.20;99.90
12289;DHT22;6207;49.308;7.336;2023-04-03T08:37:38;7.90;99.90
12289;DHT22;6207;49.308;7.336;2023-04-03T08:40:07;7.70;99.90
12289;DHT22;6207;49.308;7.336;2023-04-03T08:42:53;8.80;99.90
12289;DHT22;6207;49.308;7.336;2023-04-03T08:45:41;9.50;99.90
12289;DHT22;6207;49.308;7.336;2023-04-03T08:48:36;8.10;99.90
12289;DHT22;6207;49.308;7.336;2023-04-03T08:51:15;6.90;99.90
12289;DHT22;6207;49.308;7.336;2023-04-03T08:54:04;7.70;99.90
12289;DHT22;6207;49.308;7.336;2023-04-03T08:56:34;6.80;99.90
12289;DHT22;6207;49.308;7.336;2023-04-03T08:59:10;6.70;99.90
12289;DHT22;6207;49.308;7.336;2023-04-03T09:01:41;7.20;99.90
12289;DHT22;6207;49.308;7.336;2023-04-03T09:04:13;8.80;99.90
12289;DHT22;6207;49.308;7.336;2023-04-03T09:06:49;7.50;99.90
12289;DHT22;6207;49.308;7.336;2023-04-03T09:14:46;6.20;99.90
12289;DHT22;6207;49.308;7.336;2023-04-03T09:17:58;5.80;99.90
12289;DHT22;6207;49.308;7.336;2023-04-03T09:20:43;5.90;99.90
12289;DHT22;6207;49.308;7.336;2023-04-03T09:23:24;8.00;99.90
12289;DHT22;6207;49.308;7.336;2023-04-03T09:25:58;6.60;99.90
12289;DHT22;6207;49.308;7.336;2023-04-03T09:28:27;7.00;99.90
12289;DHT22;6207;49.308;7.336;2023-04-03T09:31:20;11.20;99.90
12289;DHT22;6207;49.308;7.336;2023-04-03T09:33:50;10.00;99.90
12289;DHT22;6207;49.308;7.336;2023-04-03T09:36:40;7.40;99.90
12289;DHT22;6207;49.308;7.336;2023-04-03T09:39:22;6.30;99.90
12289;DHT22;6207;49.308;7.336;2023-04-03T09:42:03;6.30;99.90
12289;DHT22;6207;49.308;7.336;2023-04-03T09:44:35;6.60;99.90
12289;DHT22;6207;49.308;7.336;2023-04-03T09:49:44;9.00;99.90
12289;DHT22;6207;49.308;7.336;2023-04-03T09:52:21;8.10;99.90
12289;DHT22;6207;49.308;7.336;2023-04-03T09:54:49;7.60;99.90
12289;DHT22;6207;49.308;7.336;2023-04-03T09:57:16;7.80;99.90
12289;DHT22;6207;49.308;7.336;2023-04-03T10:00:04;8.80;99.90
12289;DHT22;6207;49.308;7.336;2023-04-03T10:02:37;7.60;99.90
12289;DHT22;6207;49.308;7.336;2023-04-03T10:05:38;7.20;99.90
12289;DHT22;6207;49.308;7.336;2023-04-03T10:08:22;6.50;99.90
12289;DHT22;6207;49.308;7.336;2023-04-03T10:11:10;6.40;99.90
12289;DHT22;6207;49.308;7.336;2023-04-03T10:13:50;6.40;99.90
12289;DHT22;6207;49.308;7.336;2023-04-03T10:16:21;6.10;99.90
12289;DHT22;6207;49.308;7.336;2023-04-03T10:32:30;7.50;99.90
12289;DHT22;6207;49.308;7.336;2023-04-03T10:35:11;8.10;99.90
12289;DHT22;6207;49.308;7.336;2023-04-03T10:37:50;7.20;99.90
12289;DHT22;6207;49.308;7.336;2023-04-03T10:46:18;7.10;99.90
12289;DHT22;6207;49.308;7.336;2023-04-03T10:49:03;7.30;99.90
12289;DHT22;6207;49.308;7.336;2023-04-03T10:51:45;7.10;99.90
12289;DHT22;6207;49.308;7.336;2023-04-03T10:54:15;6.80;99.90
12289;DHT22;6207;49.308;7.336;2023-04-03T10:56:50;6.80;99.90
12289;DHT22;6207;49.308;7.336;2023-04-03T10:59:56;7.00;99.90
12289;DHT22;6207;49.308;7.336;2023-04-03T11:02:35;7.50;99.90
12289;DHT22;6207;49.308;7.336;2023-04-03T11:05:04;7.30;99.90
12289;DHT22;6207;49.308;7.336;2023-04-03T11:07:42;7.00;99.90
12289;DHT22;6207;49.308;7.336;2023-04-03T11:10:14;6.80;99.90
12289;DHT22;6207;49.308;7.336;2023-04-03T11:12:54;7.40;99.90
12289;DHT22;6207;49.308;7.336;2023-04-03T11:15:24;7.90;99.90
12289;DHT22;6207;49.308;7.336;2023-04-03T11:18:04;7.40;99.90
12289;DHT22;6207;49.308;7.336;2023-04-03T11:20:37;7.40;99.90
12289;DHT22;6207;49.308;7.336;2023-04-03T11:23:24;7.20;99.90
12289;DHT22;6207;49.308;7.336;2023-04-03T11:26:19;7.40;99.90
12289;DHT22;6207;49.308;7.336;2023-04-03T11:28:53;7.60;99.90
12289;DHT22;6207;49.308;7.336;2023-04-03T11:31:29;7.40;99.90
12289;DHT22;6207;49.308;7.336;2023-04-03T11:34:08;7.50;99.90
12289;DHT22;6207;49.308;7.336;2023-04-03T11:36:41;7.40;99.90
12289;DHT22;6207;49.308;7.336;2023-04-03T11:39:22;7.20;99.90
12289;DHT22;6207;49.308;7.336;2023-04-03T11:41:50;7.00;99.90
12289;DHT22;6207;49.308;7.336;2023-04-03T11:44:37;7.20;99.90
12289;DHT22;6207;49.308;7.336;2023-04-03T11:47:09;7.00;99.90
12289;DHT22;6207;49.308;7.336;2023-04-03T11:50:02;7.20;99.90
12289;DHT22;6207;49.308;7.336;2023-04-03T11:56:26;6.90;99.90
12289;DHT22;6207;49.308;7.336;2023-04-03T11:58:20;7.60;99.90
12289;DHT22;6207;49.308;7.336;2023-04-03T12:05:54;7.80;99.90
12289;DHT22;6207;49.308;7.336;2023-04-03T12:08:29;7.80;99.90
12289;DHT22;6207;49.308;7.336;2023-04-03T12:11:38;8.00;99.90
12289;DHT22;6207;49.308;7.336;2023-04-03T12:14:04;8.50;99.90
12289;DHT22;6207;49.308;7.336;2023-04-03T12:19:34;7.30;99.90
12289;DHT22;6207;49.308;7.336;2023-04-03T12:22:11;7.60;99.90
12289;DHT22;6207;49.308;7.336;2023-04-03T12:24:40;7.60;99.90
12289;DHT22;6207;49.308;7.336;2023-04-03T12:27:26;7.90;99.90
12289;DHT22;6207;49.308;7.336;2023-04-03T12:33:31;7.20;99.90
12289;DHT22;6207;49.308;7.336;2023-04-03T12:36:14;7.10;99.90
12289;DHT22;6207;49.308;7.336;2023-04-03T12:47:34;7.60;99.90
12289;DHT22;6207;49.308;7.336;2023-04-03T12:50:13;6.90;99.90
12289;DHT22;6207;49.308;7.336;2023-04-03T12:52:45;7.00;99.90
12289;DHT22;6207;49.308;7.336;2023-04-03T12:55:19;7.00;99.90
12289;DHT22;6207;49.308;7.336;2023-04-03T12:57:46;7.20;99.90
12289;DHT22;6207;49.308;7.336;2023-04-03T13:00:25;7.00;99.90
12289;DHT22;6207;49.308;7.336;2023-04-03T13:02:53;6.90;99.90
12289;DHT22;6207;49.308;7.336;2023-04-03T13:05:21;7.10;99.90
12289;DHT22;6207;49.308;7.336;2023-04-03T13:08:02;7.50;99.90
12289;DHT22;6207;49.308;7.336;2023-04-03T13:10:29;8.00;99.90
12289;DHT22;6207;49.308;7.336;2023-04-03T13:13:06;7.40;99.90
12289;DHT22;6207;49.308;7.336;2023-04-03T13:15:45;7.70;99.90
12289;DHT22;6207;49.308;7.336;2023-04-03T13:18:33;7.70;99.90
12289;DHT22;6207;49.308;7.336;2023-04-03T13:21:07;7.80;99.90
12289;DHT22;6207;49.308;7.336;2023-04-03T13:23:41;7.60;99.90
12289;DHT22;6207;49.308;7.336;2023-04-03T13:26:09;7.60;99.90
12289;DHT22;6207;49.308;7.336;2023-04-03T13:28:38;7.60;99.90
12289;DHT22;6207;49.308;7.336;2023-04-03T13:33:57;7.10;99.90
12289;DHT22;6207;49.308;7.336;2023-04-03T13:36:29;7.70;99.90
12289;DHT22;6207;49.308;7.336;2023-04-03T13:39:44;7.70;99.90
12289;DHT22;6207;49.308;7.336;2023-04-03T13:41:54;7.40;99.90
12289;DHT22;6207;49.308;7.336;2023-04-03T13:46:49;7.90;99.90
12289;DHT22;6207;49.308;7.336;2023-04-03T13:52:27;7.70;99.90
12289;DHT22;6207;49.308;7.336;2023-04-03T13:55:00;7.20;99.90
12289;DHT22;6207;49.308;7.336;2023-04-03T13:57:29;7.00;99.90
12289;DHT22;6207;49.308;7.336;2023-04-03T13:59:56;7.30;99.90
12289;DHT22;6207;49.308;7.336;2023-04-03T14:02:32;7.10;99.90
12289;DHT22;6207;49.308;7.336;2023-04-03T14:05:00;7.40;99.90
12289;DHT22;6207;49.308;7.336;2023-04-03T14:07:29;7.60;99.90
12289;DHT22;6207;49.308;7.336;2023-04-03T14:09:57;7.40;99.90
12289;DHT22;6207;49.308;7.336;2023-04-03T14:12:33;8.00;99.90
12289;DHT22;6207;49.308;7.336;2023-04-03T14:15:01;7.80;99.90
12289;DHT22;6207;49.308;7.336;2023-04-03T14:17:29;7.80;99.90
12289;DHT22;6207;49.308;7.336;2023-04-03T14:19:57;7.70;99.90
12289;DHT22;6207;49.308;7.336;2023-04-03T14:22:28;7.60;99.90
12289;DHT22;6207;49.308;7.336;2023-04-03T14:24:56;7.60;99.90
12289;DHT22;6207;49.308;7.336;2023-04-03T14:27:35;7.60;99.90
12289;DHT22;6207;49.308;7.336;2023-04-03T14:30:03;7.70;99.90
12289;DHT22;6207;49.308;7.336;2023-04-03T14:32:30;7.80;99.90
12289;DHT22;6207;49.308;7.336;2023-04-03T14:34:57;7.70;99.90
12289;DHT22;6207;49.308;7.336;2023-04-03T14:37:28;7.90;99.90
12289;DHT22;6207;49.308;7.336;2023-04-03T14:39:57;7.90;99.90
12289;DHT22;6207;49.308;7.336;2023-04-03T14:42:27;8.10;99.90
12289;DHT22;6207;49.308;7.336;2023-04-03T14:44:54;7.40;99.90
12289;DHT22;6207;49.308;7.336;2023-04-03T14:47:24;7.30;99.90
12289;DHT22;6207;49.308;7.336;2023-04-03T14:50:01;7.40;99.90
12289;DHT22;6207;49.308;7.336;2023-04-03T14:52:32;7.00;99.90
12289;DHT22;6207;49.308;7.336;2023-04-03T14:54:59;7.20;99.90
12289;DHT22;6207;49.308;7.336;2023-04-03T14:57:28;7.30;99.90
12289;DHT22;6207;49.308;7.336;2023-04-03T14:59:56;7.40;99.90
12289;DHT22;6207;49.308;7.336;2023-04-03T15:02:37;7.60;99.90
12289;DHT22;6207;49.308;7.336;2023-04-03T15:05:07;7.40;99.90
12289;DHT22;6207;49.308;7.336;2023-04-03T15:07:44;7.10;99.90
12289;DHT22;6207;49.308;7.336;2023-04-03T15:10:21;7.10;99.90
12289;DHT22;6207;49.308;7.336;2023-04-03T15:12:50;7.00;99.90
12289;DHT22;6207;49.308;7.336;2023-04-03T15:15:19;6.90;99.90
12289;DHT22;6207;49.308;7.336;2023-04-03T15:17:50;7.20;99.90
12289;DHT22;6207;49.308;7.336;2023-04-03T15:20:23;7.60;99.90
12289;DHT22;6207;49.308;7.336;2023-04-03T15:22:51;7.30;99.90
12289;DHT22;6207;49.308;7.336;2023-04-03T15:25:17;7.20;99.90
12289;DHT22;6207;49.308;7.336;2023-04-03T15:27:45;7.20;99.90
12289;DHT22;6207;49.308;7.336;2023-04-03T15:30:16;6.90;99.90
12289;DHT22;6207;49.308;7.336;2023-04-03T15:32:43;6.80;99.90
12289;DHT22;6207;49.308;7.336;2023-04-03T15:35:10;6.80;99.90
12289;DHT22;6207;49.308;7.336;2023-04-03T15:37:37;6.80;99.90
12289;DHT22;6207;49.308;7.336;2023-04-03T15:40:04;7.00;99.90
12289;DHT22;6207;49.308;7.336;2023-04-03T15:42:32;7.10;99.90
12289;DHT22;6207;49.308;7.336;2023-04-03T15:44:58;7.40;99.90
12289;DHT22;6207;49.308;7.336;2023-04-03T15:47:26;7.50;99.90
12289;DHT22;6207;49.308;7.336;2023-04-03T15:49:54;7.40;99.90
12289;DHT22;6207;49.308;7.336;2023-04-03T15:52:21;7.10;99.90
12289;DHT22;6207;49.308;7.336;2023-04-03T15:54:48;6.80;99.90
12289;DHT22;6207;49.308;7.336;2023-04-03T15:57:15;6.60;99.90
12289;DHT22;6207;49.308;7.336;2023-04-03T15:59:41;6.60;99.90
12289;DHT22;6207;49.308;7.336;2023-04-03T16:02:10;6.80;99.90
12289;DHT22;6207;49.308;7.336;2023-04-03T16:04:40;7.10;99.90
12289;DHT22;6207;49.308;7.336;2023-04-03T16:07:06;7.00;99.90
12289;DHT22;6207;49.308;7.336;2023-04-03T16:09:33;7.30;99.90
12289;DHT22;6207;49.308;7.336;2023-04-03T16:12:00;7.30;99.90
12289;DHT22;6207;49.308;7.336;2023-04-03T16:14:28;7.40;99.90
12289;DHT22;6207;49.308;7.336;2023-04-03T16:16:58;7.30;99.90
12289;DHT22;6207;49.308;7.336;2023-04-03T16:19:28;7.20;99.90
12289;DHT22;6207;49.308;7.336;2023-04-03T16:21:55;7.10;99.90
12289;DHT22;6207;49.308;7.336;2023-04-03T16:24:22;6.90;99.90
12289;DHT22;6207;49.308;7.336;2023-04-03T16:26:49;7.00;99.90
12289;DHT22;6207;49.308;7.336;2023-04-03T16:29:16;7.10;99.90
12289;DHT22;6207;49.308;7.336;2023-04-03T16:31:43;7.20;99.90
12289;DHT22;6207;49.308;7.336;2023-04-03T16:34:09;7.20;99.90
12289;DHT22;6207;49.308;7.336;2023-04-03T16:36:36;7.20;99.90
12289;DHT22;6207;49.308;7.336;2023-04-03T16:39:04;7.40;99.90
12289;DHT22;6207;49.308;7.336;2023-04-03T16:41:31;7.50;99.90
12289;DHT22;6207;49.308;7.336;2023-04-03T16:43:58;7.90;99.90
12289;DHT22;6207;49.308;7.336;2023-04-03T16:46:25;8.10;99.90
12289;DHT22;6207;49.308;7.336;2023-04-03T16:48:51;7.90;99.90
12289;DHT22;6207;49.308;7.336;2023-04-03T16:51:18;7.60;99.90
12289;DHT22;6207;49.308;7.336;2023-04-03T16:53:45;7.50;99.90
12289;DHT22;6207;49.308;7.336;2023-04-03T16:56:11;7.30;99.90
12289;DHT22;6207;49.308;7.336;2023-04-03T16:58:38;7.30;99.90
12289;DHT22;6207;49.308;7.336;2023-04-03T17:01:13;8.10;99.90
12289;DHT22;6207;49.308;7.336;2023-04-03T17:03:40;8.10;99.90
12289;DHT22;6207;49.308;7.336;2023-04-03T17:06:07;8.70;99.90
12289;DHT22;6207;49.308;7.336;2023-04-03T17:08:34;7.70;99.90
12289;DHT22;6207;49.308;7.336;2023-04-03T17:11:01;7.30;99.90
12289;DHT22;6207;49.308;7.336;2023-04-03T17:13:28;7.00;99.90
12289;DHT22;6207;49.308;7.336;2023-04-03T17:15:58;6.90;99.90
12289;DHT22;6207;49.308;7.336;2023-04-03T17:18:26;6.90;99.90
12289;DHT22;6207;49.308;7.336;2023-04-03T17:20:53;6.80;99.90
12289;DHT22;6207;49.308;7.336;2023-04-03T17:23:21;6.80;99.90
12289;DHT22;6207;49.308;7.336;2023-04-03T17:25:49;6.70;99.90